createdAt,value
2023-11-19T00:07:41.654Z,99085.00
2023-11-19T00:17:48.116Z,99081.92
2023-11-19T00:27:52.213Z,99074.23
2023-11-19T00:37:55.761Z,99074.71
2023-11-19T00:47:59.413Z,99074.20
2023-11-19T00:58:03.672Z,99060.44
2023-11-19T01:08:07.122Z,99060.10
2023-11-19T01:18:11.147Z,99045.09
2023-11-19T01:28:14.698Z,99030.94
2023-11-19T01:38:18.235Z,99013.83
2023-11-19T01:48:21.496Z,98999.19
2023-11-19T01:58:26.091Z,98987.02
2023-11-19T02:08:30.203Z,98947.09
2023-11-19T02:18:34.119Z,98923.73
2023-11-19T02:28:37.790Z,98906.90
2023-11-19T02:38:41.128Z,98895.30
2023-11-19T02:48:45.607Z,98849.86
2023-11-19T02:58:50.111Z,98815.89
2023-11-19T03:08:53.960Z,98813.98
2023-11-19T03:18:57.610Z,98821.02
2023-11-19T03:29:01.984Z,98828.47
2023-11-19T03:39:04.944Z,98809.51
2023-11-19T03:49:08.769Z,98786.28
2023-11-19T03:59:12.487Z,98770.90
2023-11-19T04:09:15.947Z,98735.34
2023-11-19T04:19:19.679Z,98726.95
2023-11-19T04:29:23.445Z,98701.48
2023-11-19T04:39:27.416Z,98690.86
2023-11-19T04:49:31.023Z,98669.33
2023-11-19T04:59:35.865Z,98664.11
2023-11-19T05:09:39.360Z,98659.30
2023-11-19T05:19:42.723Z,98645.17
2023-11-19T05:29:46.266Z,98616.98
2023-11-19T05:39:49.746Z,98604.45
2023-11-19T05:49:53.240Z,98586.62
2023-11-19T05:59:56.765Z,98592.53
2023-11-19T06:10:00.369Z,98585.21
2023-11-19T06:20:06.134Z,98584.52
2023-11-19T06:30:09.032Z,98579.68
2023-11-19T06:40:13.269Z,98561.79
2023-11-19T06:50:18.413Z,98550.44
2023-11-19T07:00:21.770Z,98524.03
2023-11-19T07:10:25.372Z,98499.65
2023-11-19T07:20:28.820Z,98484.86
2023-11-19T07:30:31.774Z,98479.70
2023-11-19T07:40:35.182Z,98464.06
2023-11-19T07:50:38.946Z,98441.95
2023-11-19T08:00:42.786Z,98404.73
2023-11-19T08:10:48.302Z,98411.04
2023-11-19T08:20:54.076Z,98408.09
2023-11-19T08:30:59.439Z,98385.38
2023-11-19T08:41:03.037Z,98378.12
2023-11-19T08:51:07.230Z,98349.30
2023-11-19T09:01:10.746Z,98336.64
2023-11-19T09:11:14.304Z,98314.07
2023-11-19T09:21:18.378Z,98306.09
2023-11-19T09:31:21.779Z,98290.61
2023-11-19T09:41:25.993Z,98270.88
2023-11-19T09:51:29.626Z,98256.73
2023-11-19T10:01:34.723Z,98230.92
2023-11-19T10:11:38.519Z,98203.29
2023-11-19T10:21:42.366Z,98175.11
2023-11-19T10:31:56.557Z,98150.85
2023-11-19T10:42:16.022Z,98128.05
2023-11-19T10:52:18.436Z,98110.89
2023-11-19T11:02:25.766Z,98090.88
2023-11-19T11:12:31.134Z,98085.23
2023-11-19T11:22:38.585Z,98072.21
2023-11-19T11:32:51.777Z,98043.00
2023-11-19T11:42:55.337Z,98031.38
2023-11-19T11:53:15.027Z,98014.45
2023-11-19T12:03:22.043Z,97993.39
2023-11-19T12:13:30.216Z,97979.55
2023-11-19T12:23:34.706Z,97961.91
2023-11-19T12:33:38.437Z,97942.98
2023-11-19T12:53:54.742Z,97917.85
2023-11-19T13:03:59.468Z,97895.23
2023-11-19T13:24:07.509Z,97866.46
2023-11-19T13:34:10.684Z,97851.22
2023-11-19T13:44:14.332Z,97856.05
2023-11-19T13:54:20.191Z,97846.02
2023-11-19T14:04:23.810Z,97844.05
2023-11-19T14:14:27.557Z,97841.27
2023-11-19T14:24:31.250Z,97831.76
2023-11-19T14:34:34.796Z,97818.39
2023-11-19T14:44:38.399Z,97801.13
2023-11-19T14:54:41.846Z,97794.33
2023-11-19T15:04:46.050Z,97788.36
2023-11-19T15:14:48.745Z,97792.98
2023-11-19T15:24:51.747Z,97783.05
2023-11-19T15:34:55.731Z,97775.02
2023-11-19T15:44:59.229Z,97775.55
2023-11-19T15:55:03.666Z,97768.89
2023-11-19T16:05:10.641Z,97765.63
2023-11-19T16:15:15.833Z,97758.27
2023-11-19T16:25:38.012Z,97763.36
2023-11-19T16:35:41.782Z,97761.83
2023-11-19T16:45:45.763Z,97752.12
2023-11-19T16:55:49.435Z,97747.79
2023-11-19T17:05:53.095Z,97745.74
2023-11-19T17:15:56.874Z,97749.37
2023-11-19T17:26:00.129Z,97744.92
2023-11-19T17:36:06.840Z,97737.56
2023-11-19T17:46:10.676Z,97731.20
2023-11-19T17:56:15.592Z,97723.79
2023-11-19T18:06:19.637Z,97733.48
2023-11-19T18:16:24.266Z,97731.34
2023-11-19T18:26:44.600Z,97725.55
2023-11-19T18:36:48.718Z,97719.42
2023-11-19T18:46:51.895Z,97725.90
2023-11-19T18:56:55.798Z,97727.98
2023-11-19T19:06:57.890Z,97731.70
2023-11-19T19:17:01.367Z,97734.23
2023-11-19T19:27:05.658Z,97743.55
2023-11-19T19:37:10.553Z,97752.23
2023-11-19T19:47:14.415Z,97745.91
2023-11-19T19:57:18.045Z,97744.95
2023-11-19T20:07:21.664Z,97743.73
2023-11-19T20:17:25.233Z,97751.22
2023-11-19T20:27:28.809Z,97753.19
2023-11-19T20:37:32.520Z,97759.86
2023-11-19T20:47:35.579Z,97764.58
2023-11-19T20:57:38.903Z,97761.52
2023-11-19T21:07:42.584Z,97763.59
2023-11-19T21:17:46.073Z,97765.52
2023-11-19T21:27:50.316Z,97767.95
2023-11-19T21:37:53.680Z,97768.27
2023-11-19T21:47:56.488Z,97759.95
2023-11-19T21:57:59.260Z,97765.34
2023-11-19T22:18:08.319Z,97745.73
2023-11-19T22:28:11.149Z,97750.65
2023-11-19T22:38:14.431Z,97753.92
2023-11-19T22:58:35.452Z,97754.61
2023-11-19T23:18:42.007Z,97742.30
2023-11-19T23:28:46.858Z,97755.81
2023-11-19T23:38:53.017Z,97766.01
2023-11-19T23:49:00.005Z,97768.43
2023-11-19T23:59:02.470Z,97766.19
